createdAt,value
2022-09-20T00:01:39.238Z,102099.72
2022-09-20T00:04:11.636Z,102091.75
2022-09-20T00:06:39.674Z,102101.25
2022-09-20T00:09:07.883Z,102096.78
2022-09-20T00:11:37.156Z,102102.00
2022-09-20T00:14:12.727Z,102100.16
2022-09-20T00:16:44.857Z,102101.84
2022-09-20T00:19:23.170Z,102107.00
2022-09-20T00:21:51.433Z,102101.66
2022-09-20T00:24:19.516Z,102105.00
2022-09-20T00:26:48.110Z,102101.41
2022-09-20T00:29:16.808Z,102100.38
2022-09-20T00:31:47.177Z,102104.69
2022-09-20T00:34:34.478Z,102100.22
2022-09-20T00:37:02.646Z,102104.47
2022-09-20T00:39:31.544Z,102109.66
2022-09-20T00:41:59.579Z,102113.09
2022-09-20T00:44:58.592Z,102111.41
2022-09-20T00:47:39.796Z,102118.50
2022-09-20T00:50:27.762Z,102112.38
2022-09-20T00:53:03.250Z,102119.41
2022-09-20T00:55:37.816Z,102120.25
2022-09-20T00:58:09.010Z,102123.66
2022-09-20T01:00:39.168Z,102120.97
2022-09-20T01:03:11.476Z,102117.38
2022-09-20T01:05:41.067Z,102117.31
2022-09-20T01:08:10.330Z,102112.94
2022-09-20T01:10:38.779Z,102117.31
2022-09-20T01:13:06.986Z,102116.59
2022-09-20T01:15:36.898Z,102113.16
2022-09-20T01:18:09.488Z,102115.00
2022-09-20T01:20:40.846Z,102115.09
2022-09-20T01:23:42.253Z,102112.47
2022-09-20T01:26:50.629Z,102115.16
2022-09-20T01:29:38.570Z,102115.16
2022-09-20T01:32:14.842Z,102114.22
2022-09-20T01:34:49.842Z,102115.94
2022-09-20T01:37:26.184Z,102107.13
2022-09-20T01:40:06.455Z,102111.38
2022-09-20T01:42:38.745Z,102114.69
2022-09-20T01:45:24.810Z,102116.25
2022-09-20T01:48:05.569Z,102107.31
2022-09-20T01:50:41.964Z,102111.41
2022-09-20T01:53:36.137Z,102107.69
2022-09-20T01:56:58.034Z,102109.22
2022-09-20T01:59:55.065Z,102107.22
2022-09-20T02:03:13.489Z,102108.81
2022-09-20T02:06:09.554Z,102111.19
2022-09-20T02:09:08.444Z,102113.69
2022-09-20T02:11:51.026Z,102122.31
2022-09-20T02:14:43.190Z,102119.63
2022-09-20T02:17:15.339Z,102126.56
2022-09-20T02:20:10.007Z,102123.03
2022-09-20T02:22:46.279Z,102127.44
2022-09-20T02:25:41.919Z,102120.50
2022-09-20T02:28:27.093Z,102116.28
2022-09-20T02:31:03.910Z,102107.72
2022-09-20T02:34:12.423Z,102114.03
2022-09-20T02:36:57.895Z,102105.50
2022-09-20T02:39:35.974Z,102096.75
2022-09-20T02:42:14.395Z,102110.88
2022-09-20T02:44:55.543Z,102101.22
2022-09-20T02:47:34.369Z,102114.13
2022-09-20T02:50:19.948Z,102108.69
2022-09-20T02:53:05.300Z,102114.56
2022-09-20T02:55:42.697Z,102116.09
2022-09-20T02:58:34.520Z,102117.59
2022-09-20T03:01:10.958Z,102119.16
2022-09-20T03:03:51.374Z,102134.69
2022-09-20T03:06:29.985Z,102130.09
2022-09-20T03:09:08.256Z,102131.75
2022-09-20T03:11:45.768Z,102134.19
2022-09-20T03:14:23.015Z,102122.72
2022-09-20T03:17:08.068Z,102118.19
2022-09-20T03:20:06.626Z,102127.59
2022-09-20T03:22:49.703Z,102122.25
2022-09-20T03:25:39.374Z,102119.50
2022-09-20T03:28:25.432Z,102117.66
2022-09-20T03:31:06.033Z,102121.97
2022-09-20T03:33:47.517Z,102123.59
2022-09-20T03:36:42.013Z,102120.88
2022-09-20T03:39:37.548Z,102127.75
2022-09-20T03:42:17.899Z,102124.25
2022-09-20T03:45:22.010Z,102118.94
2022-09-20T03:48:16.512Z,102123.44
2022-09-20T03:50:58.100Z,102127.06
2022-09-20T03:54:28.931Z,102124.47
2022-09-20T03:57:30.536Z,102125.25
2022-09-20T04:00:23.935Z,102115.53
2022-09-20T04:03:19.021Z,102120.66
2022-09-20T04:06:03.216Z,102124.94
2022-09-20T04:08:55.468Z,102125.75
2022-09-20T04:11:32.819Z,102122.19
2022-09-20T04:14:13.513Z,102129.16
2022-09-20T04:16:50.343Z,102130.03
2022-09-20T04:19:32.197Z,102124.78
2022-09-20T04:22:03.126Z,102127.38
2022-09-20T04:24:51.119Z,102120.38
2022-09-20T04:27:25.827Z,102120.38
2022-09-20T04:30:04.175Z,102118.63
2022-09-20T04:32:41.111Z,102120.34
2022-09-20T04:35:42.286Z,102129.88
2022-09-20T04:38:15.414Z,102130.75
2022-09-20T04:41:20.543Z,102129.81
2022-09-20T04:44:27.801Z,102134.97
2022-09-20T04:47:29.406Z,102143.69
2022-09-20T04:50:56.578Z,102144.47
2022-09-20T04:53:58.260Z,102146.16
2022-09-20T04:56:42.813Z,102143.53
2022-09-20T04:59:17.782Z,102147.91
2022-09-20T05:02:35.955Z,102147.91
2022-09-20T05:05:30.761Z,102154.94
2022-09-20T05:09:07.727Z,102153.13
2022-09-20T05:11:58.386Z,102152.31
2022-09-20T05:14:53.084Z,102150.53
2022-09-20T05:17:38.173Z,102161.03
2022-09-20T05:20:43.977Z,102155.72
2022-09-20T05:23:43.566Z,102155.59
2022-09-20T05:26:16.410Z,102165.19
2022-09-20T05:28:56.716Z,102165.19
2022-09-20T05:31:38.096Z,102165.19
2022-09-20T05:34:18.202Z,102166.94
2022-09-20T05:36:58.691Z,102167.94
2022-09-20T05:39:37.585Z,102175.13
2022-09-20T05:42:18.775Z,102175.31
2022-09-20T05:45:05.755Z,102172.13
2022-09-20T05:47:43.726Z,102174.19
2022-09-20T05:50:40.430Z,102178.91
2022-09-20T05:53:52.537Z,102179.16
2022-09-20T05:56:38.603Z,102182.97
2022-09-20T05:59:26.975Z,102182.41
2022-09-20T06:02:26.512Z,102191.44
2022-09-20T06:05:04.935Z,102190.84
2022-09-20T06:07:53.997Z,102188.53
2022-09-20T06:10:50.988Z,102195.06
2022-09-20T06:13:45.805Z,102201.69
2022-09-20T06:16:27.787Z,102207.44
2022-09-20T06:19:08.002Z,102210.41
2022-09-20T06:21:43.886Z,102202.03
2022-09-20T06:24:31.298Z,102201.53
2022-09-20T06:27:04.778Z,102208.78
2022-09-20T06:29:37.137Z,102208.88
2022-09-20T06:32:05.360Z,102196.69
2022-09-20T06:34:33.750Z,102199.41
2022-09-20T06:37:34.246Z,102199.47
2022-09-20T06:40:35.945Z,102206.56
2022-09-20T06:43:05.580Z,102196.22
2022-09-20T06:45:33.676Z,102201.63
2022-09-20T06:48:02.259Z,102214.03
2022-09-20T06:50:30.959Z,102220.34
2022-09-20T06:52:59.000Z,102225.78
2022-09-20T06:55:37.273Z,102217.19
2022-09-20T06:58:05.368Z,102219.13
2022-09-20T07:00:33.456Z,102216.72
2022-09-20T07:03:01.616Z,102223.06
2022-09-20T07:05:29.633Z,102228.56
2022-09-20T07:07:58.950Z,102224.44
2022-09-20T07:10:30.535Z,102226.47
2022-09-20T07:13:00.349Z,102228.56
2022-09-20T07:15:29.272Z,102234.13
2022-09-20T07:17:57.457Z,102236.19
2022-09-20T07:20:25.696Z,102239.88
2022-09-20T07:22:53.783Z,102249.63
2022-09-20T07:25:23.053Z,102246.81
2022-09-20T07:27:52.918Z,102239.44
2022-09-20T07:30:22.066Z,102247.16
2022-09-20T07:32:50.294Z,102248.91
2022-09-20T07:35:18.777Z,102250.75
2022-09-20T07:37:47.846Z,102253.50
2022-09-20T07:40:16.428Z,102264.91
2022-09-20T07:42:46.027Z,102274.47
2022-09-20T07:45:15.635Z,102262.09
2022-09-20T07:47:46.411Z,102262.09
2022-09-20T07:50:14.764Z,102255.13
2022-09-20T07:52:42.927Z,102258.66
2022-09-20T07:55:11.091Z,102253.47
2022-09-20T07:57:39.822Z,102253.59
2022-09-20T08:00:11.580Z,102258.84
2022-09-20T08:02:41.113Z,102264.06
2022-09-20T08:05:09.967Z,102264.91
2022-09-20T08:07:38.544Z,102268.38
2022-09-20T08:10:08.055Z,102274.63
2022-09-20T08:15:25.978Z,102268.00
2022-09-20T08:17:55.502Z,102276.06
2022-09-20T08:20:23.554Z,102270.03
2022-09-20T08:23:12.460Z,102283.41
2022-09-20T08:25:41.728Z,102279.16
2022-09-20T08:28:09.873Z,102280.97
2022-09-20T08:30:38.082Z,102281.03
2022-09-20T08:33:07.904Z,102284.59
2022-09-20T08:35:38.500Z,102279.41
2022-09-20T08:40:59.800Z,102280.56
2022-09-20T08:43:34.933Z,102276.22
2022-09-20T08:46:06.016Z,102280.66
2022-09-20T08:48:35.721Z,102279.81
2022-09-20T08:51:06.175Z,102280.66
2022-09-20T08:53:35.246Z,102282.44
2022-09-20T08:56:04.672Z,102283.47
2022-09-20T08:58:32.805Z,102282.66
2022-09-20T09:01:01.444Z,102283.56
2022-09-20T09:03:29.532Z,102279.22
2022-09-20T09:05:59.310Z,102287.28
2022-09-20T09:08:37.685Z,102290.03
2022-09-20T09:11:09.939Z,102290.19
2022-09-20T09:13:55.528Z,102287.66
2022-09-20T09:16:33.721Z,102290.31
2022-09-20T09:19:33.152Z,102289.56
2022-09-20T09:22:05.712Z,102285.28
2022-09-20T09:24:34.479Z,102290.66
2022-09-20T09:27:16.353Z,102292.50
2022-09-20T09:29:52.141Z,102288.03
2022-09-20T09:32:28.524Z,102290.66
2022-09-20T09:34:57.271Z,102295.03
2022-09-20T09:37:32.566Z,102296.81
2022-09-20T09:40:17.329Z,102305.66
2022-09-20T09:42:57.594Z,102305.69
2022-09-20T09:45:31.638Z,102302.16
2022-09-20T09:48:02.252Z,102306.69
2022-09-20T09:50:33.550Z,102297.94
2022-09-20T09:53:13.663Z,102302.47
2022-09-20T09:55:59.605Z,102310.47
2022-09-20T09:58:44.808Z,102309.66
2022-09-20T10:01:29.946Z,102310.53
2022-09-20T10:04:07.449Z,102311.38
2022-09-20T10:06:45.928Z,102315.75
2022-09-20T10:09:50.005Z,102305.97
2022-09-20T10:12:33.701Z,102300.63
2022-09-20T10:15:21.214Z,102312.91
2022-09-20T10:18:03.072Z,102314.47
2022-09-20T10:21:06.611Z,102309.94
2022-09-20T10:24:03.102Z,102319.59
2022-09-20T10:26:59.547Z,102316.84
2022-09-20T10:29:45.577Z,102303.44
2022-09-20T10:32:28.212Z,102313.91
2022-09-20T10:35:21.552Z,102303.16
2022-09-20T10:38:07.353Z,102308.31
2022-09-20T10:41:07.931Z,102314.44
2022-09-20T10:43:59.278Z,102318.06
2022-09-20T10:46:44.021Z,102313.69
2022-09-20T10:49:28.990Z,102323.38
2022-09-20T10:52:23.876Z,102310.09
2022-09-20T10:55:12.333Z,102313.50
2022-09-20T10:58:26.641Z,102316.84
2022-09-20T11:01:04.552Z,102307.69
2022-09-20T11:03:55.485Z,102307.44
2022-09-20T11:06:29.519Z,102317.09
2022-09-20T11:09:01.352Z,102306.38
2022-09-20T11:11:35.982Z,102307.84
2022-09-20T11:14:10.139Z,102310.34
2022-09-20T11:16:44.354Z,102306.06
2022-09-20T11:19:26.615Z,102305.31
2022-09-20T11:22:01.755Z,102311.44
2022-09-20T11:24:36.669Z,102309.53
2022-09-20T11:27:14.123Z,102310.13
2022-09-20T11:29:50.040Z,102316.38
2022-09-20T11:32:28.820Z,102316.38
2022-09-20T11:35:03.064Z,102312.75
2022-09-20T11:37:39.009Z,102309.94
2022-09-20T11:40:18.558Z,102314.34
2022-09-20T11:42:48.119Z,102319.00
2022-09-20T11:45:16.404Z,102309.50
2022-09-20T11:47:54.816Z,102310.13
2022-09-20T11:50:57.104Z,102313.56
2022-09-20T11:53:50.504Z,102315.53
2022-09-20T11:56:21.696Z,102308.56
2022-09-20T11:58:52.552Z,102313.78
2022-09-20T12:01:29.758Z,102315.47
2022-09-20T12:04:31.064Z,102307.47
2022-09-20T12:07:06.049Z,102307.38
2022-09-20T12:09:41.175Z,102296.81
2022-09-20T12:12:20.120Z,102301.97
2022-09-20T12:14:56.152Z,102307.69
2022-09-20T12:18:32.956Z,102307.16
2022-09-20T12:21:15.252Z,102308.88
2022-09-20T12:24:23.663Z,102311.09
2022-09-20T12:26:56.888Z,102319.56
2022-09-20T12:30:07.996Z,102315.72
2022-09-20T12:32:58.771Z,102319.88
2022-09-20T12:35:59.174Z,102317.63
2022-09-20T12:38:33.364Z,102324.78
2022-09-20T12:41:12.744Z,102321.09
2022-09-20T12:43:55.656Z,102325.66
2022-09-20T12:46:38.279Z,102315.25
2022-09-20T12:50:02.139Z,102307.25
2022-09-20T12:52:54.168Z,102315.91
2022-09-20T12:55:42.436Z,102300.69
2022-09-20T12:58:32.318Z,102311.94
2022-09-20T13:01:32.029Z,102312.75
2022-09-20T13:04:55.734Z,102306.47
2022-09-20T13:07:53.935Z,102302.03
2022-09-20T13:10:40.752Z,102297.53
2022-09-20T13:13:32.731Z,102310.19
2022-09-20T13:16:05.651Z,102311.66
2022-09-20T13:18:35.948Z,102307.41
2022-09-20T13:21:07.649Z,102305.22
2022-09-20T13:23:49.302Z,102315.97
2022-09-20T13:26:28.071Z,102318.53
2022-09-20T13:28:59.102Z,102314.66
2022-09-20T13:31:34.596Z,102315.22
2022-09-20T13:34:20.752Z,102311.56
2022-09-20T13:36:55.349Z,102316.69
2022-09-20T13:39:32.800Z,102317.69
2022-09-20T13:42:06.938Z,102320.25
2022-09-20T13:44:37.361Z,102323.59
2022-09-20T13:47:27.537Z,102338.22
2022-09-20T13:50:02.931Z,102333.00
2022-09-20T13:52:32.918Z,102332.75
2022-09-20T13:55:01.095Z,102339.03
2022-09-20T13:57:31.679Z,102324.44
2022-09-20T14:00:01.624Z,102336.72
2022-09-20T14:02:33.120Z,102338.69
2022-09-20T14:05:04.511Z,102332.78
2022-09-20T14:07:33.647Z,102331.84
2022-09-20T14:10:01.721Z,102332.22
2022-09-20T14:12:34.785Z,102337.09
2022-09-20T14:15:11.294Z,102344.28
2022-09-20T14:17:39.855Z,102337.66
2022-09-20T14:20:15.339Z,102334.81
2022-09-20T14:22:45.317Z,102339.19
2022-09-20T14:25:25.487Z,102329.28
2022-09-20T14:28:18.115Z,102331.16
2022-09-20T14:30:47.950Z,102336.38
2022-09-20T14:33:20.958Z,102335.88
2022-09-20T14:35:51.275Z,102329.16
2022-09-20T14:38:24.303Z,102323.06
2022-09-20T14:40:52.938Z,102323.19
2022-09-20T14:43:31.327Z,102320.44
2022-09-20T14:46:03.348Z,102326.75
2022-09-20T14:48:36.646Z,102338.63
2022-09-20T14:51:25.417Z,102337.19
2022-09-20T14:53:57.658Z,102338.91
2022-09-20T14:56:35.707Z,102341.41
2022-09-20T14:59:30.310Z,102342.69
2022-09-20T15:02:10.133Z,102344.16
2022-09-20T15:04:38.786Z,102339.88
2022-09-20T15:07:10.378Z,102345.88
2022-09-20T15:09:39.054Z,102345.88
2022-09-20T15:12:13.669Z,102340.25
2022-09-20T15:14:43.146Z,102348.81
2022-09-20T15:17:17.321Z,102343.56
2022-09-20T15:19:45.530Z,102342.38
2022-09-20T15:22:15.185Z,102353.69
2022-09-20T15:24:46.420Z,102350.50
2022-09-20T15:27:14.817Z,102348.66
2022-09-20T15:29:44.217Z,102352.78
2022-09-20T15:32:12.690Z,102353.09
2022-09-20T15:34:40.769Z,102354.22
2022-09-20T15:37:09.953Z,102351.59
2022-09-20T15:39:38.170Z,102354.84
2022-09-20T15:42:06.923Z,102347.88
2022-09-20T15:44:35.026Z,102347.16
2022-09-20T15:47:04.623Z,102346.78
2022-09-20T15:49:33.242Z,102345.41
2022-09-20T15:52:02.374Z,102341.25
2022-09-20T15:54:30.545Z,102347.97
2022-09-20T15:56:58.616Z,102346.91
2022-09-20T15:59:29.419Z,102352.94
2022-09-20T16:01:57.502Z,102349.72
2022-09-20T16:04:27.758Z,102349.06
2022-09-20T16:06:55.839Z,102354.72
2022-09-20T16:09:23.955Z,102350.22
2022-09-20T16:11:58.703Z,102361.34
2022-09-20T16:14:26.810Z,102363.81
2022-09-20T16:17:02.029Z,102363.75
2022-09-20T16:19:30.555Z,102361.56
2022-09-20T16:21:59.521Z,102365.63
2022-09-20T16:24:30.218Z,102366.84
2022-09-20T16:27:00.696Z,102364.66
2022-09-20T16:29:30.036Z,102372.75
2022-09-20T16:31:59.597Z,102365.78
2022-09-20T16:34:31.272Z,102372.22
2022-09-20T16:37:02.941Z,102374.41
2022-09-20T16:39:32.166Z,102382.13
2022-09-20T16:42:03.631Z,102380.69
2022-09-20T16:44:32.392Z,102390.53
2022-09-20T16:47:01.052Z,102397.28
2022-09-20T16:49:29.996Z,102398.56
2022-09-20T16:51:58.687Z,102398.19
2022-09-20T16:54:31.783Z,102390.25
2022-09-20T16:57:01.876Z,102399.81
2022-09-20T16:59:30.427Z,102399.56
2022-09-20T17:01:58.866Z,102402.72
2022-09-20T17:04:27.300Z,102398.63
2022-09-20T17:06:55.820Z,102406.91
2022-09-20T17:09:24.365Z,102400.13
2022-09-20T17:11:54.494Z,102407.44
2022-09-20T17:14:23.871Z,102414.69
2022-09-20T17:16:53.302Z,102415.72
2022-09-20T17:19:22.402Z,102409.66
2022-09-20T17:21:51.647Z,102416.00
2022-09-20T17:24:21.545Z,102415.19
2022-09-20T17:26:51.110Z,102407.31
2022-09-20T17:29:21.542Z,102416.22
2022-09-20T17:31:55.701Z,102418.97
2022-09-20T17:34:26.321Z,102428.75
2022-09-20T17:36:55.338Z,102422.59
2022-09-20T17:39:23.978Z,102425.28
2022-09-20T17:41:52.119Z,102438.53
2022-09-20T17:44:21.762Z,102430.59
2022-09-20T17:46:53.787Z,102442.09
2022-09-20T17:49:24.423Z,102432.38
2022-09-20T17:51:54.964Z,102441.19
2022-09-20T17:54:24.811Z,102443.84
2022-09-20T17:56:55.978Z,102449.16
2022-09-20T17:59:25.853Z,102449.16
2022-09-20T18:01:57.040Z,102453.56
2022-09-20T18:04:25.330Z,102451.78
2022-09-20T18:06:55.429Z,102457.03
2022-09-20T18:09:27.104Z,102457.88
2022-09-20T18:11:56.942Z,102457.00
2022-09-20T18:14:28.678Z,102471.97
2022-09-20T18:17:01.045Z,102470.13
2022-09-20T18:19:32.999Z,102477.19
2022-09-20T18:22:02.244Z,102477.16
2022-09-20T18:24:31.394Z,102485.97
2022-09-20T18:27:00.512Z,102477.13
2022-09-20T18:29:36.565Z,102484.16
2022-09-20T18:32:06.428Z,102484.13
2022-09-20T18:34:34.516Z,102484.13
2022-09-20T18:37:03.753Z,102489.38
2022-09-20T18:39:35.102Z,102477.00
2022-09-20T18:42:04.157Z,102495.50
2022-09-20T18:44:33.926Z,102494.56
2022-09-20T18:47:03.755Z,102486.59
2022-09-20T18:49:32.596Z,102497.97
2022-09-20T18:52:00.779Z,102496.13
2022-09-20T18:54:30.608Z,102490.75
2022-09-20T18:57:00.065Z,102499.44
2022-09-20T18:59:29.281Z,102495.81
2022-09-20T19:02:18.202Z,102492.16
2022-09-20T19:05:17.563Z,102500.72
2022-09-20T19:08:00.932Z,102500.50
2022-09-20T19:10:41.994Z,102509.16
2022-09-20T19:13:29.518Z,102501.91
2022-09-20T19:16:25.407Z,102514.88
2022-09-20T19:19:35.829Z,102513.78
2022-09-20T19:22:17.242Z,102512.72
2022-09-20T19:25:04.593Z,102518.69
2022-09-20T19:27:35.527Z,102513.25
2022-09-20T19:30:06.247Z,102519.31
2022-09-20T19:32:36.409Z,102525.31
2022-09-20T19:35:11.117Z,102525.16
2022-09-20T19:38:01.208Z,102527.59
2022-09-20T19:40:39.992Z,102534.50
2022-09-20T19:43:46.355Z,102535.19
2022-09-20T19:46:34.354Z,102527.94
2022-09-20T19:49:15.975Z,102537.44
2022-09-20T19:51:47.893Z,102541.69
2022-09-20T19:54:19.090Z,102543.28
2022-09-20T19:56:55.176Z,102548.41
2022-09-20T19:59:27.126Z,102552.66
2022-09-20T20:01:58.744Z,102549.94
2022-09-20T20:04:28.669Z,102555.13
2022-09-20T20:07:09.935Z,102553.16
2022-09-20T20:09:47.422Z,102563.56
2022-09-20T20:12:25.959Z,102546.75
2022-09-20T20:15:07.367Z,102558.84
2022-09-20T20:17:50.075Z,102557.78
2022-09-20T20:20:30.487Z,102554.06
2022-09-20T20:23:50.246Z,102567.03
2022-09-20T20:26:25.869Z,102559.97
2022-09-20T20:28:55.883Z,102564.28
2022-09-20T20:31:25.353Z,102565.13
2022-09-20T20:33:55.801Z,102565.03
2022-09-20T20:36:25.009Z,102570.13
2022-09-20T20:38:58.963Z,102570.00
2022-09-20T20:41:27.955Z,102563.69
2022-09-20T20:43:57.371Z,102569.72
2022-09-20T20:46:27.599Z,102573.97
2022-09-20T20:48:56.911Z,102571.25
2022-09-20T20:51:27.618Z,102579.00
2022-09-20T20:53:58.919Z,102573.56
2022-09-20T20:56:30.273Z,102573.38
2022-09-20T20:59:00.706Z,102571.53
2022-09-20T21:01:32.715Z,102572.25
2022-09-20T21:04:04.518Z,102575.69
2022-09-20T21:06:36.319Z,102584.34
2022-09-20T21:09:07.031Z,102581.53
2022-09-20T21:11:37.468Z,102581.47
2022-09-20T21:14:08.019Z,102590.97
2022-09-20T21:16:38.889Z,102591.72
2022-09-20T21:19:09.486Z,102595.09
2022-09-20T21:21:44.146Z,102598.47
2022-09-20T21:24:23.851Z,102594.84
2022-09-20T21:26:53.492Z,102596.53
2022-09-20T21:29:21.854Z,102603.47
2022-09-20T21:31:53.847Z,102595.53
2022-09-20T21:34:21.916Z,102603.38
2022-09-20T21:36:51.824Z,102601.59
2022-09-20T21:39:31.824Z,102607.63
2022-09-20T21:42:09.908Z,102610.06
2022-09-20T21:44:48.129Z,102611.75
2022-09-20T21:47:36.379Z,102611.75
2022-09-20T21:50:07.085Z,102620.34
2022-09-20T21:52:36.003Z,102618.66
2022-09-20T21:55:06.919Z,102613.22
2022-09-20T21:57:34.977Z,102621.97
2022-09-20T22:00:03.391Z,102624.44
2022-09-20T22:02:31.878Z,102621.72
2022-09-20T22:04:59.993Z,102621.56
2022-09-20T22:07:28.123Z,102624.06
2022-09-20T22:09:56.203Z,102626.53
2022-09-20T22:12:25.626Z,102624.66
2022-09-20T22:14:53.745Z,102628.13
2022-09-20T22:17:21.914Z,102623.59
2022-09-20T22:19:50.235Z,102622.53
2022-09-20T22:22:18.711Z,102626.75
2022-09-20T22:24:47.212Z,102622.25
2022-09-20T22:27:15.535Z,102624.66
2022-09-20T22:29:45.732Z,102620.19
2022-09-20T22:32:14.058Z,102620.06
2022-09-20T22:34:42.413Z,102630.53
2022-09-20T22:37:10.824Z,102622.47
2022-09-20T22:39:39.228Z,102626.72
2022-09-20T22:42:07.780Z,102630.94
2022-09-20T22:44:36.140Z,102622.16
2022-09-20T22:47:06.271Z,102619.38
2022-09-20T22:49:34.732Z,102619.22
2022-09-20T22:52:04.058Z,102626.25
2022-09-20T22:54:35.543Z,102618.25
2022-09-20T22:57:03.894Z,102624.22
2022-09-20T22:59:32.249Z,102629.38
2022-09-20T23:02:00.578Z,102625.81
2022-09-20T23:04:30.311Z,102621.38
2022-09-20T23:06:58.650Z,102624.00
2022-09-20T23:09:28.543Z,102630.09
2022-09-20T23:11:56.958Z,102628.25
2022-09-20T23:14:25.888Z,102638.69
2022-09-20T23:16:54.422Z,102635.16
2022-09-20T23:19:23.890Z,102629.88
2022-09-20T23:21:53.608Z,102639.53
2022-09-20T23:24:21.981Z,102641.28
2022-09-20T23:26:50.424Z,102636.00
2022-09-20T23:29:18.937Z,102641.13
2022-09-20T23:31:48.587Z,102636.63
2022-09-20T23:34:18.408Z,102639.06
2022-09-20T23:36:47.717Z,102643.34
2022-09-20T23:39:17.526Z,102644.06
2022-09-20T23:41:50.563Z,102645.66
2022-09-20T23:44:19.376Z,102649.13
2022-09-20T23:46:47.760Z,102649.94
2022-09-20T23:49:16.192Z,102653.34
2022-09-20T23:51:44.544Z,102649.84
2022-09-20T23:54:12.882Z,102660.31
2022-09-20T23:56:42.897Z,102660.38
2022-09-20T23:59:11.253Z,102653.34
